createdAt,value
2022-08-01T00:00:10.424Z,1.50
2022-08-01T00:02:58.840Z,1.50
2022-08-01T00:05:27.126Z,1.80
2022-08-01T00:07:55.195Z,1.60
2022-08-01T00:10:23.769Z,1.50
2022-08-01T00:12:51.914Z,1.70
2022-08-01T00:15:20.025Z,1.80
2022-08-01T00:17:48.146Z,1.40
2022-08-01T00:20:16.241Z,1.90
2022-08-01T00:22:44.302Z,1.40
2022-08-01T00:25:12.395Z,1.50
2022-08-01T00:27:40.691Z,1.80
2022-08-01T00:30:13.119Z,1.70
2022-08-01T00:32:43.538Z,1.90
2022-08-01T00:35:12.449Z,1.80
2022-08-01T00:37:40.743Z,1.60
2022-08-01T00:40:09.440Z,1.70
2022-08-01T00:42:42.929Z,1.90
2022-08-01T00:45:12.939Z,1.90
2022-08-01T00:47:41.034Z,1.70
2022-08-01T00:50:10.013Z,1.60
2022-08-01T00:52:40.273Z,1.90
2022-08-01T00:55:09.079Z,2.00
2022-08-01T00:58:03.302Z,1.80
2022-08-01T01:00:30.494Z,1.60
2022-08-01T01:03:01.194Z,1.80
2022-08-01T01:05:29.363Z,1.90
2022-08-01T01:08:05.461Z,2.00
2022-08-01T01:10:49.515Z,2.00
2022-08-01T01:13:30.176Z,2.60
2022-08-01T01:16:07.463Z,1.60
2022-08-01T01:18:47.835Z,1.60
2022-08-01T01:21:18.867Z,1.80
2022-08-01T01:24:13.121Z,1.60
2022-08-01T01:27:16.609Z,1.60
2022-08-01T01:29:58.897Z,1.60
2022-08-01T01:32:38.610Z,1.80
2022-08-01T01:35:16.921Z,1.90
2022-08-01T01:37:48.205Z,2.00
2022-08-01T01:40:18.280Z,1.70
2022-08-01T01:42:48.649Z,1.70
2022-08-01T01:45:17.907Z,1.70
2022-08-01T01:47:47.333Z,1.90
2022-08-01T01:50:16.211Z,2.00
2022-08-01T01:52:47.155Z,1.90
2022-08-01T01:55:16.638Z,1.50
2022-08-01T01:57:45.967Z,1.80
2022-08-01T02:00:15.677Z,2.00
2022-08-01T02:02:45.645Z,2.00
2022-08-01T02:05:14.757Z,1.60
2022-08-01T02:07:44.925Z,1.50
2022-08-01T02:10:14.309Z,2.00
2022-08-01T02:12:46.668Z,2.10
2022-08-01T02:15:15.803Z,1.50
2022-08-01T02:17:48.598Z,1.50
2022-08-01T02:20:17.737Z,1.80
2022-08-01T02:22:52.399Z,1.60
2022-08-01T02:26:11.007Z,1.80
2022-08-01T02:28:48.917Z,1.90
2022-08-01T02:31:22.621Z,1.60
2022-08-01T02:34:01.096Z,1.50
2022-08-01T02:36:33.398Z,1.80
2022-08-01T02:39:05.970Z,2.00
2022-08-01T02:41:37.240Z,2.00
2022-08-01T02:44:08.110Z,2.30
2022-08-01T02:46:42.718Z,1.90
2022-08-01T02:49:12.396Z,1.90
2022-08-01T02:51:41.898Z,2.20
2022-08-01T02:54:12.393Z,2.00
2022-08-01T02:56:42.086Z,2.00
2022-08-01T02:59:16.333Z,2.10
2022-08-01T03:01:51.298Z,1.80
2022-08-01T03:04:21.305Z,1.90
2022-08-01T03:06:49.858Z,2.00
2022-08-01T03:09:19.517Z,1.60
2022-08-01T03:11:50.408Z,2.10
2022-08-01T03:14:21.515Z,2.10
2022-08-01T03:16:52.750Z,2.40
2022-08-01T03:19:24.175Z,2.10
2022-08-01T03:21:53.392Z,1.90
2022-08-01T03:24:24.788Z,2.00
2022-08-01T03:26:55.117Z,1.80
2022-08-01T03:29:26.827Z,2.20
2022-08-01T03:31:56.477Z,2.30
2022-08-01T03:34:24.709Z,2.40
2022-08-01T03:37:00.811Z,1.80
2022-08-01T03:39:35.079Z,2.00
2022-08-01T03:42:09.198Z,2.20
2022-08-01T03:44:40.337Z,2.00
2022-08-01T03:47:10.243Z,2.00
2022-08-01T03:49:43.975Z,1.80
2022-08-01T03:52:13.760Z,1.80
2022-08-01T03:54:47.604Z,1.90
2022-08-01T03:57:20.196Z,2.60
2022-08-01T04:00:10.503Z,2.10
2022-08-01T04:02:42.699Z,1.80
2022-08-01T04:05:11.581Z,2.10
2022-08-01T04:07:44.956Z,2.40
2022-08-01T04:10:13.039Z,1.80
2022-08-01T04:12:41.166Z,1.60
2022-08-01T04:15:09.458Z,1.70
2022-08-01T04:17:37.886Z,2.30
2022-08-01T04:20:06.658Z,2.00
2022-08-01T04:22:35.222Z,2.10
2022-08-01T04:25:12.498Z,2.00
2022-08-01T04:27:49.667Z,1.90
2022-08-01T04:30:28.281Z,1.90
2022-08-01T04:33:00.439Z,2.30
2022-08-01T04:36:03.856Z,2.00
2022-08-01T04:38:24.055Z,2.10
2022-08-01T04:40:53.599Z,1.60
2022-08-01T04:43:22.241Z,1.80
2022-08-01T04:45:52.722Z,1.70
2022-08-01T04:48:23.158Z,1.60
2022-08-01T04:50:52.606Z,1.60
2022-08-01T04:53:24.453Z,1.60
2022-08-01T04:55:52.538Z,1.80
2022-08-01T04:58:20.558Z,1.40
2022-08-01T05:00:48.832Z,1.80
2022-08-01T05:03:17.300Z,1.40
2022-08-01T05:05:45.518Z,1.70
2022-08-01T05:08:13.699Z,1.70
2022-08-01T05:10:41.767Z,2.20
2022-08-01T05:13:10.384Z,1.80
2022-08-01T05:15:38.856Z,1.80
2022-08-01T05:18:08.651Z,1.80
2022-08-01T05:20:38.366Z,2.00
2022-08-01T05:23:06.652Z,1.60
2022-08-01T05:28:25.887Z,1.60
2022-08-01T05:30:56.199Z,1.50
2022-08-01T05:33:24.662Z,1.90
2022-08-01T05:35:52.892Z,2.10
2022-08-01T05:38:21.125Z,1.60
2022-08-01T05:40:49.281Z,1.60
2022-08-01T05:43:17.568Z,1.60
2022-08-01T05:45:47.123Z,1.80
2022-08-01T05:48:15.363Z,1.20
2022-08-01T05:50:43.643Z,1.80
2022-08-01T05:53:11.737Z,1.70
2022-08-01T05:55:39.992Z,1.80
2022-08-01T05:58:08.139Z,2.00
2022-08-01T06:00:41.258Z,2.10
2022-08-01T06:03:09.361Z,1.70
2022-08-01T06:05:37.623Z,1.60
2022-08-01T06:08:05.766Z,1.90
2022-08-01T06:10:33.843Z,1.60
2022-08-01T06:13:04.248Z,1.80
2022-08-01T06:15:33.748Z,1.80
2022-08-01T06:18:02.159Z,1.70
2022-08-01T06:20:30.612Z,1.60
2022-08-01T06:22:59.777Z,1.80
2022-08-01T06:25:29.127Z,2.00
2022-08-01T06:27:57.168Z,1.90
2022-08-01T06:30:25.131Z,1.90
2022-08-01T06:32:53.503Z,1.50
2022-08-01T06:35:21.738Z,1.80
2022-08-01T06:37:50.201Z,1.70
2022-08-01T06:40:18.974Z,1.90
2022-08-01T06:42:49.831Z,1.90
2022-08-01T06:45:18.175Z,1.70
2022-08-01T06:47:48.870Z,2.10
2022-08-01T06:50:19.747Z,1.80
2022-08-01T06:52:47.818Z,1.30
2022-08-01T06:55:16.009Z,1.90
2022-08-01T06:57:52.746Z,1.80
2022-08-01T07:00:26.699Z,1.80
2022-08-01T07:02:57.172Z,2.00
2022-08-01T07:05:25.277Z,2.10
2022-08-01T07:07:53.505Z,1.70
2022-08-01T07:10:21.604Z,1.70
2022-08-01T07:12:49.680Z,1.60
2022-08-01T07:15:17.793Z,2.10
2022-08-01T07:17:45.933Z,1.90
2022-08-01T07:20:16.190Z,1.70
2022-08-01T07:22:47.636Z,1.70
2022-08-01T07:25:16.642Z,1.70
2022-08-01T07:27:45.646Z,1.50
2022-08-01T07:30:14.070Z,1.80
2022-08-01T07:32:42.193Z,1.70
2022-08-01T07:35:10.664Z,1.70
2022-08-01T07:37:47.949Z,1.50
2022-08-01T07:40:19.255Z,1.80
2022-08-01T07:42:48.394Z,2.50
2022-08-01T07:45:16.422Z,1.70
2022-08-01T07:47:44.881Z,1.50
2022-08-01T07:50:13.953Z,1.80
2022-08-01T07:52:42.485Z,1.60
2022-08-01T07:55:12.213Z,1.70
2022-08-01T07:57:45.225Z,1.50
2022-08-01T08:00:14.533Z,1.60
2022-08-01T08:02:48.211Z,1.30
2022-08-01T08:05:58.740Z,1.40
2022-08-01T08:08:07.936Z,1.70
2022-08-01T08:10:36.000Z,1.50
2022-08-01T08:13:04.123Z,1.90
2022-08-01T08:15:32.206Z,1.40
2022-08-01T08:18:01.835Z,1.50
2022-08-01T08:20:30.376Z,1.60
2022-08-01T08:22:59.793Z,1.30
2022-08-01T08:25:30.015Z,1.90
2022-08-01T08:27:58.044Z,1.50
2022-08-01T08:30:25.994Z,1.40
2022-08-01T08:32:53.992Z,1.30
2022-08-01T08:35:23.196Z,1.40
2022-08-01T08:38:08.864Z,1.50
2022-08-01T08:40:42.097Z,1.40
2022-08-01T08:43:11.152Z,1.20
2022-08-01T08:45:58.222Z,1.40
2022-08-01T08:48:28.326Z,1.20
2022-08-01T08:50:58.958Z,1.60
2022-08-01T08:53:34.630Z,1.40
2022-08-01T08:56:14.144Z,1.40
2022-08-01T08:58:44.768Z,1.60
2022-08-01T09:01:13.747Z,1.40
2022-08-01T09:03:42.096Z,1.20
2022-08-01T09:06:10.944Z,1.20
2022-08-01T09:08:39.018Z,1.50
2022-08-01T09:11:09.285Z,1.30
2022-08-01T09:13:37.673Z,1.30
2022-08-01T09:16:18.676Z,1.20
2022-08-01T09:18:53.512Z,1.30
2022-08-01T09:21:29.366Z,1.30
2022-08-01T09:24:03.977Z,1.70
2022-08-01T09:26:37.348Z,1.30
2022-08-01T09:29:08.051Z,1.80
2022-08-01T09:31:48.937Z,1.50
2022-08-01T09:34:25.000Z,1.40
2022-08-01T09:37:01.311Z,1.40
2022-08-01T09:39:32.635Z,1.00
2022-08-01T09:42:03.049Z,1.20
2022-08-01T09:44:55.158Z,1.10
2022-08-01T09:47:39.118Z,1.40
2022-08-01T09:50:10.981Z,1.40
2022-08-01T09:52:41.148Z,1.20
2022-08-01T09:55:10.722Z,1.30
2022-08-01T09:57:39.885Z,1.40
2022-08-01T10:00:35.761Z,1.40
2022-08-01T10:03:27.339Z,1.40
2022-08-01T10:05:55.482Z,1.30
2022-08-01T10:08:26.353Z,1.40
2022-08-01T10:11:12.225Z,1.30
2022-08-01T10:13:42.162Z,1.20
2022-08-01T10:16:13.937Z,1.30
2022-08-01T10:18:56.067Z,1.20
2022-08-01T10:21:54.701Z,1.20
2022-08-01T10:24:15.489Z,1.40
2022-08-01T10:26:50.311Z,1.30
2022-08-01T10:29:46.446Z,1.30
2022-08-01T10:32:18.578Z,1.20
2022-08-01T10:34:52.030Z,1.40
2022-08-01T10:37:20.365Z,1.50
2022-08-01T10:39:48.547Z,1.20
2022-08-01T10:42:16.775Z,1.30
2022-08-01T10:44:58.739Z,1.40
2022-08-01T10:47:57.270Z,1.20
2022-08-01T10:50:32.484Z,1.20
2022-08-01T10:53:23.971Z,1.10
2022-08-01T10:56:02.673Z,1.10
2022-08-01T10:58:44.229Z,1.30
2022-08-01T11:01:30.264Z,1.60
2022-08-01T11:04:02.790Z,1.30
2022-08-01T11:06:34.919Z,1.20
2022-08-01T11:09:06.224Z,1.30
2022-08-01T11:12:12.814Z,1.40
2022-08-01T11:15:00.055Z,1.50
2022-08-01T11:17:54.608Z,1.30
2022-08-01T11:20:27.549Z,1.50
2022-08-01T11:22:58.746Z,1.90
2022-08-01T11:26:05.147Z,1.60
2022-08-01T11:28:28.467Z,1.40
2022-08-01T11:31:07.580Z,1.60
2022-08-01T11:33:49.416Z,1.40
2022-08-01T11:36:22.207Z,1.60
2022-08-01T11:38:59.872Z,1.40
2022-08-01T11:44:09.334Z,1.50
2022-08-01T11:46:49.833Z,1.30
2022-08-01T11:49:38.882Z,1.40
2022-08-01T11:52:13.583Z,1.40
2022-08-01T11:54:58.279Z,1.60
2022-08-01T11:57:34.002Z,1.30
2022-08-01T12:00:16.973Z,1.40
2022-08-01T12:02:59.085Z,1.40
2022-08-01T12:05:31.401Z,1.50
2022-08-01T12:07:59.700Z,1.40
2022-08-01T12:10:34.066Z,1.40
2022-08-01T12:13:04.519Z,1.60
2022-08-01T12:15:36.504Z,1.50
2022-08-01T12:20:42.826Z,1.50
2022-08-01T12:23:22.473Z,1.30
2022-08-01T12:25:54.234Z,1.40
2022-08-01T12:28:22.634Z,1.40
2022-08-01T12:30:50.764Z,1.40
2022-08-01T12:33:20.353Z,1.40
2022-08-01T12:35:49.071Z,1.50
2022-08-01T12:38:24.095Z,1.40
2022-08-01T12:40:53.147Z,1.50
2022-08-01T12:43:29.403Z,1.50
2022-08-01T12:46:01.041Z,1.30
2022-08-01T12:48:32.190Z,1.60
2022-08-01T12:51:02.422Z,1.30
2022-08-01T12:53:40.476Z,1.50
2022-08-01T12:56:13.833Z,1.30
2022-08-01T12:58:41.892Z,1.50
2022-08-01T13:01:11.970Z,1.40
2022-08-01T13:03:41.365Z,1.40
2022-08-01T13:06:16.602Z,1.70
2022-08-01T13:08:46.279Z,1.30
2022-08-01T13:11:17.712Z,1.30
2022-08-01T13:13:52.888Z,1.40
2022-08-01T13:16:31.162Z,1.70
2022-08-01T13:19:07.358Z,1.70
2022-08-01T13:21:52.710Z,1.60
2022-08-01T13:24:28.735Z,1.30
2022-08-01T13:27:04.831Z,1.30
2022-08-01T13:29:39.530Z,1.30
2022-08-01T13:32:28.736Z,1.40
2022-08-01T13:35:06.890Z,1.30
2022-08-01T13:37:34.986Z,1.40
2022-08-01T13:40:08.332Z,1.30
2022-08-01T13:42:36.501Z,1.10
2022-08-01T13:45:14.749Z,1.70
2022-08-01T13:48:03.794Z,1.60
2022-08-01T13:50:34.232Z,1.40
2022-08-01T13:53:02.828Z,1.50
2022-08-01T13:55:34.977Z,1.80
2022-08-01T13:58:04.144Z,2.30
2022-08-01T14:00:32.384Z,1.80
2022-08-01T14:03:00.461Z,4.00
2022-08-01T14:05:28.564Z,2.70
2022-08-01T14:07:56.880Z,1.80
2022-08-01T14:10:25.755Z,2.30
2022-08-01T14:12:56.790Z,1.40
2022-08-01T14:15:38.189Z,8.30
2022-08-01T14:18:10.055Z,1.20
2022-08-01T14:20:39.952Z,1.50
2022-08-01T14:23:08.534Z,1.60
2022-08-01T14:26:03.388Z,1.20
2022-08-01T14:28:31.265Z,1.30
2022-08-01T14:30:59.957Z,1.50
2022-08-01T14:33:28.612Z,1.30
2022-08-01T14:36:06.526Z,1.30
2022-08-01T14:38:46.442Z,1.50
2022-08-01T14:41:17.993Z,1.40
2022-08-01T14:43:46.323Z,1.60
2022-08-01T14:46:14.556Z,1.30
2022-08-01T14:48:43.552Z,1.20
2022-08-01T14:51:11.656Z,2.10
2022-08-01T14:53:42.968Z,1.40
2022-08-01T14:56:15.349Z,1.40
2022-08-01T14:58:43.350Z,1.40
2022-08-01T15:01:11.497Z,1.60
2022-08-01T15:03:39.691Z,1.60
2022-08-01T15:06:07.752Z,1.20
2022-08-01T15:08:35.924Z,1.40
2022-08-01T15:11:04.084Z,1.30
2022-08-01T15:13:32.862Z,1.60
2022-08-01T15:16:01.390Z,1.40
2022-08-01T15:18:29.802Z,1.40
2022-08-01T15:20:58.548Z,1.60
2022-08-01T15:23:26.827Z,1.40
2022-08-01T15:25:54.971Z,1.70
2022-08-01T15:28:23.331Z,2.00
2022-08-01T15:30:51.389Z,1.60
2022-08-01T15:33:19.575Z,1.80
2022-08-01T15:35:47.654Z,1.70
2022-08-01T15:38:18.104Z,1.60
2022-08-01T15:40:46.197Z,1.60
2022-08-01T15:43:15.714Z,2.30
2022-08-01T15:45:48.380Z,1.70
2022-08-01T15:48:18.045Z,1.50
2022-08-01T15:50:46.331Z,1.60
2022-08-01T15:53:14.490Z,1.60
2022-08-01T15:55:46.628Z,1.60
2022-08-01T15:58:21.037Z,1.60
2022-08-01T16:00:49.102Z,1.30
2022-08-01T16:03:17.609Z,1.50
2022-08-01T16:05:46.242Z,1.50
2022-08-01T16:08:14.451Z,1.60
2022-08-01T16:10:43.443Z,1.50
2022-08-01T16:13:12.926Z,1.40
2022-08-01T16:15:41.356Z,1.40
2022-08-01T16:18:13.196Z,3.40
2022-08-01T16:20:45.371Z,1.60
2022-08-01T16:23:15.466Z,1.60
2022-08-01T16:25:44.936Z,1.40
2022-08-01T16:28:14.462Z,1.60
2022-08-01T16:30:48.771Z,1.80
2022-08-01T16:33:45.738Z,1.60
2022-08-01T16:36:23.376Z,1.60
2022-08-01T16:38:53.326Z,1.60
2022-08-01T16:41:21.758Z,1.50
2022-08-01T16:43:53.269Z,1.90
2022-08-01T16:46:25.378Z,2.30
2022-08-01T16:48:54.578Z,1.80
2022-08-01T16:51:22.861Z,1.70
2022-08-01T16:53:50.906Z,1.90
2022-08-01T16:56:19.178Z,2.10
2022-08-01T16:58:47.304Z,2.60
2022-08-01T17:01:59.659Z,2.50
2022-08-01T17:04:03.431Z,2.70
2022-08-01T17:06:31.595Z,2.40
2022-08-01T17:08:59.663Z,2.60
2022-08-01T17:11:27.702Z,2.00
2022-08-01T17:13:55.681Z,1.90
2022-08-01T17:16:23.793Z,1.70
2022-08-01T17:18:51.866Z,2.10
2022-08-01T17:21:20.204Z,2.20
2022-08-01T17:23:48.149Z,2.00
2022-08-01T17:26:16.308Z,2.50
2022-08-01T17:28:44.332Z,3.50
2022-08-01T17:31:12.327Z,3.20
2022-08-01T17:33:46.060Z,3.00
2022-08-01T17:36:18.174Z,2.40
2022-08-01T17:38:50.982Z,2.20
2022-08-01T17:41:19.021Z,1.90
2022-08-01T17:43:47.030Z,2.00
2022-08-01T17:46:15.268Z,2.20
2022-08-01T17:48:44.565Z,2.10
2022-08-01T17:51:12.983Z,1.90
2022-08-01T17:53:57.423Z,1.80
2022-08-01T17:56:29.039Z,1.80
2022-08-01T17:58:57.324Z,1.80
2022-08-01T18:01:26.888Z,1.90
2022-08-01T18:03:58.565Z,1.90
2022-08-01T18:06:26.806Z,2.10
2022-08-01T18:08:56.499Z,1.70
2022-08-01T18:11:27.476Z,2.10
2022-08-01T18:13:57.105Z,2.10
2022-08-01T18:16:30.270Z,2.40
2022-08-01T18:18:58.420Z,2.10
2022-08-01T18:21:26.519Z,2.10
2022-08-01T18:23:54.549Z,2.20
2022-08-01T18:26:22.858Z,2.40
2022-08-01T18:28:51.079Z,2.10
2022-08-01T18:31:20.873Z,2.00
2022-08-01T18:33:49.927Z,2.30
2022-08-01T18:39:13.605Z,2.60
2022-08-01T18:41:42.342Z,2.40
2022-08-01T18:44:37.002Z,2.20
2022-08-01T18:47:05.587Z,2.40
2022-08-01T18:49:34.412Z,2.20
2022-08-01T18:52:02.450Z,3.10
2022-08-01T18:54:31.288Z,3.50
2022-08-01T18:56:59.251Z,2.60
2022-08-01T18:59:27.391Z,2.60
2022-08-01T19:01:55.491Z,2.50
2022-08-01T19:04:23.717Z,2.30
2022-08-01T19:06:51.819Z,2.90
2022-08-01T19:09:20.524Z,2.60
2022-08-01T19:11:49.464Z,3.10
2022-08-01T19:14:17.802Z,2.20
2022-08-01T19:16:45.825Z,2.60
2022-08-01T19:19:14.418Z,2.50
2022-08-01T19:21:56.506Z,2.40
2022-08-01T19:24:25.920Z,2.50
2022-08-01T19:26:57.349Z,2.40
2022-08-01T19:29:35.764Z,2.70
2022-08-01T19:32:07.023Z,2.40
2022-08-01T19:35:01.770Z,2.60
2022-08-01T19:37:31.162Z,2.70
2022-08-01T19:40:00.132Z,3.00
2022-08-01T19:42:30.500Z,2.40
2022-08-01T19:44:59.383Z,2.70
2022-08-01T19:47:50.969Z,3.30
2022-08-01T19:50:15.574Z,2.80
2022-08-01T19:52:45.398Z,2.70
2022-08-01T19:55:14.831Z,2.50
2022-08-01T19:57:47.448Z,3.20
2022-08-01T20:00:23.909Z,3.30
2022-08-01T20:02:57.195Z,2.70
2022-08-01T20:05:26.036Z,2.20
2022-08-01T20:07:54.473Z,2.80
2022-08-01T20:10:22.715Z,2.40
2022-08-01T20:12:50.812Z,2.50
2022-08-01T20:15:19.204Z,2.30
2022-08-01T20:17:47.227Z,2.70
2022-08-01T20:20:15.404Z,2.60
2022-08-01T20:22:46.005Z,2.80
2022-08-01T20:25:14.452Z,2.30
2022-08-01T20:27:44.707Z,2.60
2022-08-01T20:30:13.047Z,2.30
2022-08-01T20:32:41.599Z,2.30
2022-08-01T20:35:10.327Z,2.30
2022-08-01T20:38:03.373Z,2.20
2022-08-01T20:40:30.400Z,2.50
2022-08-01T20:42:58.795Z,2.30
2022-08-01T20:45:27.707Z,2.80
2022-08-01T20:47:56.378Z,2.10
2022-08-01T20:50:54.373Z,2.60
2022-08-01T20:53:24.482Z,2.60
2022-08-01T20:56:06.774Z,2.10
2022-08-01T20:58:38.320Z,2.40
2022-08-01T21:01:09.245Z,2.80
2022-08-01T21:03:53.799Z,3.00
2022-08-01T21:06:29.678Z,2.50
2022-08-01T21:09:02.643Z,2.60
2022-08-01T21:11:50.074Z,2.30
2022-08-01T21:14:26.048Z,2.70
2022-08-01T21:17:03.873Z,3.30
2022-08-01T21:19:34.629Z,2.60
2022-08-01T21:22:20.089Z,3.00
2022-08-01T21:25:03.488Z,2.70
2022-08-01T21:27:34.280Z,2.90
2022-08-01T21:30:08.354Z,2.70
2022-08-01T21:32:37.726Z,2.70
2022-08-01T21:35:15.817Z,3.10
2022-08-01T21:37:50.022Z,3.30
2022-08-01T21:40:23.156Z,2.90
2022-08-01T21:42:53.932Z,2.80
2022-08-01T21:45:27.300Z,2.80
2022-08-01T21:47:57.403Z,3.00
2022-08-01T21:50:25.968Z,2.90
2022-08-01T21:53:09.174Z,2.70
2022-08-01T21:56:14.553Z,2.50
2022-08-01T21:59:04.060Z,2.90
2022-08-01T22:01:51.558Z,2.70
2022-08-01T22:04:33.115Z,3.40
2022-08-01T22:07:03.120Z,2.60
2022-08-01T22:09:33.051Z,3.10
2022-08-01T22:12:06.180Z,2.50
2022-08-01T22:14:40.439Z,3.00
2022-08-01T22:17:13.295Z,2.40
2022-08-01T22:19:45.405Z,2.90
2022-08-01T22:22:51.910Z,2.60
2022-08-01T22:25:04.818Z,5.60
2022-08-01T22:28:05.555Z,2.80
2022-08-01T22:30:21.558Z,3.00
2022-08-01T22:33:15.115Z,3.00
2022-08-01T22:35:39.951Z,2.60
2022-08-01T22:38:09.921Z,3.10
2022-08-01T22:40:44.826Z,2.80
2022-08-01T22:43:39.007Z,3.40
2022-08-01T22:46:39.385Z,3.60
2022-08-01T22:49:16.674Z,3.20
2022-08-01T22:51:55.694Z,3.00
2022-08-01T22:54:41.922Z,3.10
2022-08-01T22:57:24.433Z,2.70
2022-08-01T23:00:04.198Z,2.90
2022-08-01T23:02:36.716Z,2.80
2022-08-01T23:07:40.038Z,3.30
2022-08-01T23:10:09.339Z,3.00
2022-08-01T23:12:37.584Z,2.80
2022-08-01T23:15:06.415Z,3.00
2022-08-01T23:17:35.260Z,3.00
2022-08-01T23:20:07.263Z,2.30
2022-08-01T23:22:37.599Z,3.10
2022-08-01T23:25:12.004Z,2.50
2022-08-01T23:28:04.620Z,2.90
2022-08-01T23:30:33.439Z,2.50
2022-08-01T23:33:02.859Z,2.40
2022-08-01T23:35:31.352Z,2.40
2022-08-01T23:38:02.197Z,2.80
2022-08-01T23:40:32.850Z,2.70
2022-08-01T23:43:02.581Z,3.30
2022-08-01T23:46:02.901Z,2.40
2022-08-01T23:48:19.480Z,3.00
2022-08-01T23:50:47.591Z,2.30
2022-08-01T23:53:15.645Z,3.20
2022-08-01T23:55:44.311Z,3.50
2022-08-01T23:58:12.616Z,2.60
